Time;durP1;ratioP1;P1;durP2;ratioP2;P2;SDS_P1;SDS_P2;PMS_P1;PMS_P2;Temp;Humidity;BMP_temperature;BMP_pressure;BME280_temperature;BME280_humidity;BME280_pressure;Samples;Min_cycle;Max_cycle;Signal;HPM_P1;HPM_P2
2022/08/05 00:01:49;;;;;;;9.40;8.05;;;;;;;20.63;100.00;99769.53;5174788;27;20085;-50
2022/08/05 00:04:15;;;;;;;11.85;8.60;;;;;;;;;;5175283;27;20077;-52
2022/08/05 00:06:42;;;;;;;11.85;8.02;;;;;;;20.67;100.00;99756.34;5174679;27;20597;-52
2022/08/05 00:09:08;;;;;;;10.65;8.88;;;;;;;20.55;100.00;99776.41;5174888;27;20046;-49
2022/08/05 00:11:34;;;;;;;12.73;8.98;;;;;;;20.53;100.00;99750.19;5174681;27;20557;-50
2022/08/05 00:14:00;;;;;;;9.68;7.95;;;;;;;20.56;100.00;99758.50;5174728;27;20508;-51
2022/08/05 00:16:27;;;;;;;13.20;9.05;;;;;;;20.37;100.00;99742.41;5174424;27;20052;-49
2022/08/05 00:18:53;;;;;;;11.25;8.30;;;;;;;20.58;100.00;99746.94;5174549;27;20049;-50
2022/08/05 00:21:20;;;;;;;9.85;8.52;;;;;;;20.47;100.00;99744.25;5174535;27;20110;-48
2022/08/05 00:23:47;;;;;;;11.40;8.93;;;;;;;20.27;100.00;99730.19;5174760;27;20053;-50
2022/08/05 00:26:14;;;;;;;9.32;8.40;;;;;;;20.39;100.00;99718.50;5174777;27;20106;-50
2022/08/05 00:28:41;;;;;;;9.07;8.18;;;;;;;20.42;100.00;99730.78;5174226;27;20049;-48
2022/08/05 00:31:07;;;;;;;10.32;8.82;;;;;;;20.43;100.00;99735.97;5174654;27;20123;-49
2022/08/05 00:33:34;;;;;;;10.80;8.95;;;;;;;20.34;100.00;99732.88;5174289;27;20050;-47
2022/08/05 00:36:01;;;;;;;11.52;9.07;;;;;;;20.11;100.00;99727.22;5174511;27;20042;-52
2022/08/05 00:38:27;;;;;;;11.05;9.52;;;;;;;20.13;100.00;99716.47;5174154;27;20051;-48
2022/08/05 00:40:55;;;;;;;15.50;9.02;;;;;;;20.18;100.00;99700.06;5174401;27;20501;-51
2022/08/05 00:43:22;;;;;;;16.35;9.68;;;;;;;20.16;100.00;99705.28;5174155;27;20049;-48
2022/08/05 00:45:49;;;;;;;12.02;9.25;;;;;;;20.17;100.00;99704.06;5174296;27;20053;-51
2022/08/05 00:48:17;;;;;;;11.90;9.48;;;;;;;20.24;100.00;99705.97;5174100;27;20046;-48
2022/08/05 00:50:46;;;;;;;12.75;8.70;;;;;;;20.06;100.00;99708.16;5174392;27;20102;-51
2022/08/05 00:53:14;;;;;;;12.20;11.02;;;;;;;20.04;100.00;99708.59;5173433;27;20412;-49
2022/08/05 00:55:41;;;;;;;9.95;8.90;;;;;;;20.04;100.00;99699.47;5173745;27;20050;-50
2022/08/05 00:58:07;;;;;;;13.75;10.05;;;;;;;20.03;100.00;99695.13;5174190;27;20054;-49
2022/08/05 01:00:33;;;;;;;11.00;9.07;;;;;;;19.78;100.00;99673.13;5173984;27;20046;-51
2022/08/05 01:03:00;;;;;;;11.80;9.05;;;;;;;19.78;100.00;99659.22;5174056;27;20519;-50
2022/08/05 01:05:26;;;;;;;11.27;9.48;;;;;;;19.80;100.00;99663.19;5173868;27;20054;-50
2022/08/05 01:07:53;;;;;;;13.15;11.63;;;;;;;19.72;100.00;99651.31;5173898;27;20107;-51
2022/08/05 01:10:36;;;;;;;11.32;9.05;;;;;;;19.84;100.00;99663.91;5173796;27;20057;-49
2022/08/05 01:13:09;;;;;;;19.17;9.40;;;;;;;19.80;100.00;99657.63;5174144;27;20164;-52
2022/08/05 01:15:44;;;;;;;12.80;11.67;;;;;;;19.78;100.00;99653.66;5173652;27;20532;-48
2022/08/05 01:18:22;;;;;;;15.88;9.02;;;;;;;19.77;100.00;99652.09;5173740;27;20452;-49
2022/08/05 01:20:58;;;;;;;13.93;12.65;;;;;;;19.77;100.00;99640.97;5173969;27;20050;-48
2022/08/05 01:23:34;;;;;;;15.98;12.98;;;;;;;19.80;100.00;99631.78;5173532;27;20050;-49
2022/08/05 01:26:21;;;;;;;13.75;11.73;;;;;;;19.74;100.00;99623.88;5174013;27;20394;-50
2022/08/05 01:28:53;;;;;;;14.18;12.85;;;;;;;19.75;100.00;99628.25;5173736;27;20165;-49
2022/08/05 01:31:25;;;;;;;16.08;10.27;;;;;;;19.73;100.00;99636.22;5173645;27;20042;-48
2022/08/05 01:34:00;;;;;;;14.30;13.00;;;;;;;19.63;100.00;99634.38;5173553;27;20050;-51
2022/08/05 01:36:30;;;;;;;20.02;10.27;;;;;;;19.69;100.00;99629.94;5173053;27;20050;-49
2022/08/05 01:38:57;;;;;;;13.60;12.23;;;;;;;19.67;100.00;99634.31;5173815;27;20635;-51
2022/08/05 01:41:26;;;;;;;12.73;9.20;;;;;;;19.64;100.00;99637.94;5173623;27;20445;-50
2022/08/05 01:43:55;;;;;;;13.10;12.00;;;;;;;19.48;100.00;99619.78;5173165;27;20519;-49
2022/08/05 01:46:22;;;;;;;15.77;9.63;;;;;;;19.54;100.00;99606.22;5173334;27;20050;-49
2022/08/05 01:48:51;;;;;;;14.77;13.38;;;;;;;19.58;100.00;99612.53;5172979;27;20421;-52
2022/08/05 01:51:18;;;;;;;13.55;12.23;;;;;;;19.50;100.00;99614.59;5173162;27;20046;-48
2022/08/05 01:53:47;;;;;;;13.30;12.00;;;;;;;19.52;100.00;99614.19;5173051;27;20043;-50
2022/08/05 01:56:17;;;;;;;15.23;10.27;;;;;;;19.56;100.00;99614.94;5173165;27;20509;-48
2022/08/05 01:58:44;;;;;;;11.52;10.27;;;;;;;19.56;100.00;99620.50;5173076;27;20106;-49
2022/08/05 02:01:12;;;;;;;13.48;12.20;;;;;;;19.47;100.00;99623.00;5172937;27;20057;-48
2022/08/05 02:03:44;;;;;;;13.75;12.45;;;;;;;19.49;100.00;99615.00;5172558;27;20556;-51
2022/08/05 02:06:11;;;;;;;12.43;11.23;;;;;;;19.41;100.00;99613.53;5172951;27;20068;-51
2022/08/05 02:08:38;;;;;;;11.85;9.95;;;;;;;19.44;100.00;99618.25;5172924;27;20081;-48
2022/08/05 02:11:07;;;;;;;13.23;9.52;;;;;;;19.43;100.00;99611.13;5173010;27;20057;-49
2022/08/05 02:13:40;;;;;;;13.55;12.27;;;;;;;19.36;100.00;99625.91;5172883;27;20050;-49
2022/08/05 02:16:14;;;;;;;13.77;12.43;;;;;;;19.24;100.00;99618.06;5173093;27;20050;-52
2022/08/05 02:18:46;;;;;;;11.43;9.63;;;;;;;19.33;100.00;99603.69;5172958;27;20057;-51
2022/08/05 02:21:15;;;;;;;13.63;12.43;;;;;;;19.30;100.00;99613.66;5172851;27;20448;-51
2022/08/05 02:23:44;;;;;;;14.10;12.80;;;;;;;19.10;100.00;99598.75;5172766;27;20050;-49
2022/08/05 02:26:14;;;;;;;15.77;14.25;;;;;;;19.30;100.00;99580.28;5172885;27;20105;-48
2022/08/05 02:28:42;;;;;;;14.73;10.93;;;;;;;19.19;100.00;99577.63;5172668;27;20054;-49
2022/08/05 02:31:15;;;;;;;16.10;11.30;;;;;;;19.31;100.00;99569.94;5172593;27;20050;-49
2022/08/05 02:33:49;;;;;;;15.38;13.75;;;;;;;19.24;100.00;99568.03;5172489;27;20090;-51
2022/08/05 02:36:21;;;;;;;14.55;13.25;;;;;;;19.24;100.00;99571.59;5172524;27;20060;-49
2022/08/05 02:38:48;;;;;;;14.40;13.07;;;;;;;19.16;100.00;99572.91;5172698;27;20046;-51
2022/08/05 02:41:16;;;;;;;14.57;13.18;;;;;;;19.24;100.00;99579.94;5172611;27;20050;-51
2022/08/05 02:43:45;;;;;;;16.30;10.63;;;;;;;19.28;100.00;99568.78;5172159;27;20057;-52
2022/08/05 02:46:14;;;;;;;15.07;12.93;;;;;;;19.27;100.00;99562.44;5172637;27;20050;-49
2022/08/05 02:48:41;;;;;;;14.00;10.70;;;;;;;19.41;100.00;99555.91;5172386;27;20128;-53
2022/08/05 02:51:08;;;;;;;14.77;13.13;;;;;;;19.34;100.00;99572.69;5172437;27;20057;-50
2022/08/05 02:53:37;;;;;;;14.02;11.10;;;;;;;19.51;100.00;99590.38;5172243;27;20053;-52
2022/08/05 02:56:05;;;;;;;13.18;11.98;;;;;;;19.48;100.00;99593.97;5172375;27;20070;-50
2022/08/05 02:58:32;;;;;;;14.05;10.35;;;;;;;19.47;100.00;99595.97;5172109;27;20100;-49
2022/08/05 03:01:01;;;;;;;14.52;12.23;;;;;;;19.56;100.00;99603.00;5172157;27;20042;-48
2022/08/05 03:03:28;;;;;;;13.65;12.45;;;;;;;19.79;100.00;99610.72;5172149;27;20050;-48
2022/08/05 03:05:57;;;;;;;15.18;12.73;;;;;;;20.22;100.00;99636.78;5171986;27;20073;-49
2022/08/05 03:08:24;;;;;;;15.45;12.20;;;;;;;20.44;100.00;99690.19;5171947;27;20501;-48
2022/08/05 03:10:50;;;;;;;12.98;11.73;;;;;;;20.81;100.00;99724.69;5171925;27;20050;-49
2022/08/05 03:13:17;;;;;;;15.63;9.25;;;;;;;20.95;100.00;99781.44;5172147;27;20438;-51
2022/08/05 03:15:44;;;;;;;10.15;8.90;;;;;;;21.34;100.00;99814.31;5172005;27;20050;-49
2022/08/05 03:18:10;;;;;;;16.52;8.43;;;;;;;21.41;100.00;99844.91;5174759;27;20054;-50
2022/08/05 03:20:37;;;;;;;11.98;9.00;;;;;;;21.76;100.00;99856.69;5175523;27;20053;-52
2022/08/05 03:23:06;;;;;;;9.88;8.43;;;;;;;21.49;100.00;99851.97;5175878;27;20046;-52
2022/08/05 03:25:33;;;;;;;11.00;10.00;;;;;;;22.21;100.00;99853.56;5175571;27;20072;-50
2022/08/05 03:28:00;;;;;;;11.52;10.32;;;;;;;22.64;100.00;99844.34;5175408;27;20421;-50
2022/08/05 03:30:28;;;;;;;11.35;7.72;;;;;;;22.81;100.00;99790.06;5175444;27;20110;-51
2022/08/05 03:32:54;;;;;;;11.57;10.38;;;;;;;22.74;100.00;99777.03;5175765;27;20053;-52
2022/08/05 03:35:21;;;;;;;10.48;9.50;;;;;;;23.07;100.00;99757.53;5175359;27;20448;-52
2022/08/05 03:37:47;;;;;;;12.80;8.43;;;;;;;23.19;100.00;99700.91;5175380;27;20110;-52
2022/08/05 03:40:14;;;;;;;11.10;8.52;;;;;;;23.65;100.00;99633.75;5175581;27;20050;-52
2022/08/05 03:42:40;;;;;;;9.85;8.85;;;;;;;23.87;100.00;99558.38;5175202;27;20064;-52
2022/08/05 03:45:08;;;;;;;10.52;7.70;;;;;;;23.95;100.00;99551.31;5175387;27;20493;-50
2022/08/05 03:47:34;;;;;;;14.52;9.70;;;;;;;24.21;100.00;99440.06;5175295;27;20446;-48
2022/08/05 03:50:01;;;;;;;10.82;7.05;;;;;;;24.25;100.00;99381.88;5175344;27;20094;-50
2022/08/05 03:52:31;;;;;;;10.68;8.38;;;;;;;24.12;100.00;99428.75;5175094;27;20107;-50
2022/08/05 03:55:00;;;;;;;9.55;8.63;;;;;;;24.58;100.00;99337.50;5175125;27;20050;-50
2022/08/05 03:57:32;;;;;;;8.55;7.75;;;;;;;24.14;100.00;99277.84;5174969;27;20473;-53
2022/08/05 04:00:04;;;;;;;8.57;7.47;;;;;;;24.74;100.00;99293.69;5174951;27;20046;-51
2022/08/05 04:02:33;;;;;;;10.40;9.02;;;;;;;24.93;100.00;99138.31;5174891;27;20057;-52
2022/08/05 04:05:01;;;;;;;10.10;8.80;;;;;;;24.83;100.00;99162.75;5175029;27;20098;-52
2022/08/05 04:07:28;;;;;;;8.55;7.68;;;;;;;24.79;100.00;99263.06;5174956;27;20046;-51
2022/08/05 04:09:55;;;;;;;10.65;7.97;;;;;;;25.19;100.00;99070.75;5175047;27;20559;-51
2022/08/05 04:12:21;;;;;;;8.05;7.20;;;;;;;25.48;100.00;99011.34;5174959;27;20043;-50
2022/08/05 04:14:49;;;;;;;11.20;8.38;;;;;;;25.88;100.00;98827.81;5175097;27;20511;-52
2022/08/05 04:17:16;;;;;;;9.10;8.20;;;;;;;25.96;100.00;98795.31;5174683;27;20050;-50
2022/08/05 04:19:43;;;;;;;9.93;8.73;;;;;;;26.56;100.00;98666.94;5174864;27;20138;-49
2022/08/05 04:22:10;;;;;;;8.68;7.57;;;;;;;26.80;100.00;98604.94;5174722;27;20133;-52
2022/08/05 04:24:36;;;;;;;12.23;7.60;;;;;;;26.73;100.00;98566.78;5174715;27;20056;-50
2022/08/05 04:27:03;;;;;;;8.70;7.28;;;;;;;26.52;100.00;98602.47;5174529;27;20509;-52
2022/08/05 04:29:29;;;;;;;10.88;7.53;;;;;;;26.93;100.00;98546.31;5173337;27;20185;-53
2022/08/05 04:31:56;;;;;;;7.65;6.65;;;;;;;26.99;100.00;98525.44;5174545;27;20056;-48
2022/08/05 04:34:22;;;;;;;9.90;6.95;;;;;;;27.31;100.00;98496.66;5174205;27;20046;-50
2022/08/05 04:36:48;;;;;;;8.38;7.22;;;;;;;27.61;100.00;98452.94;5174382;27;20054;-52
2022/08/05 04:39:14;;;;;;;9.13;7.03;;;;;;;27.67;100.00;98436.09;5174542;27;20050;-50
2022/08/05 04:41:41;;;;;;;12.02;7.13;;;;;;;27.86;100.00;98436.53;5174368;27;20046;-51
2022/08/05 04:44:07;;;;;;;9.75;6.63;;;;;;;28.02;100.00;98396.41;5174403;27;20546;-50
2022/08/05 04:46:33;;;;;;;8.10;6.60;;;;;;;27.90;100.00;98412.50;5174256;27;20564;-53
2022/08/05 04:49:00;;;;;;;8.32;7.13;;;;;;;27.74;100.00;98398.25;5174647;27;20088;-52
2022/08/05 04:51:26;;;;;;;10.68;6.65;;;;;;;27.86;100.00;98425.28;5174369;27;20359;-50
2022/08/05 04:53:53;;;;;;;8.82;6.20;;;;;;;28.37;100.00;98375.63;5174311;27;20052;-49
2022/08/05 04:56:19;;;;;;;9.45;6.38;;;;;;;28.83;100.00;98375.28;5174315;27;20050;-50
2022/08/05 04:58:45;;;;;;;6.95;6.25;;;;;;;28.95;100.00;98378.13;5173936;27;20050;-52
2022/08/05 05:01:12;;;;;;;7.80;5.82;;;;;;;28.85;100.00;98361.44;5173893;27;20446;-52
2022/08/05 05:03:38;;;;;;;8.60;5.50;;;;;;;29.29;100.00;98376.13;5173869;27;20139;-52
2022/08/05 05:06:08;;;;;;;12.23;5.80;;;;;;;29.40;100.00;98387.44;5174200;27;20130;-53
2022/08/05 05:08:36;;;;;;;9.52;6.70;;;;;;;28.53;100.00;98414.41;5174039;27;20061;-50
2022/08/05 05:11:03;;;;;;;14.02;6.55;;;;;;;29.41;100.00;98394.63;5174238;27;20197;-50
2022/08/05 05:13:29;;;;;;;6.43;5.80;;;;;;;29.36;100.00;98428.50;5173864;27;20368;-49
2022/08/05 05:15:55;;;;;;;7.53;5.63;;;;;;;29.64;100.00;98429.31;5174080;27;20052;-50
2022/08/05 05:18:22;;;;;;;13.80;6.00;;;;;;;30.22;100.00;98429.56;5173729;27;20050;-49
2022/08/05 05:20:48;;;;;;;6.10;5.50;;;;;;;30.01;100.00;98417.72;5173679;27;20046;-50
2022/08/05 05:23:15;;;;;;;11.63;5.85;;;;;;;30.36;100.00;98396.63;5173491;27;20052;-50
2022/08/05 05:25:43;;;;;;;11.40;5.70;;;;;;;30.59;100.00;98456.69;5173295;27;20132;-52
2022/08/05 05:28:09;;;;;;;7.55;6.07;;;;;;;30.98;100.00;98514.44;5173442;27;20143;-51
2022/08/05 05:30:36;;;;;;;8.88;5.40;;;;;;;31.04;100.00;98524.44;5173418;27;20050;-51
2022/08/05 05:33:04;;;;;;;6.32;5.50;;;;;;;30.86;100.00;98548.47;5173702;27;20046;-49
2022/08/05 05:35:31;;;;;;;8.13;5.80;;;;;;;30.55;100.00;98545.91;5173340;27;20053;-52
2022/08/05 05:38:00;;;;;;;7.82;5.50;;;;;;;30.02;100.00;98458.06;5173367;27;20049;-49
2022/08/05 05:40:27;;;;;;;7.38;5.03;;;;;;;31.10;100.00;98513.13;5173262;27;20450;-54
2022/08/05 05:42:54;;;;;;;8.05;5.88;;;;;;;30.97;100.00;98527.81;5173660;27;20046;-52
2022/08/05 05:45:21;;;;;;;6.25;5.65;;;;;;;31.00;100.00;98614.53;5173464;27;20042;-50
2022/08/05 05:47:48;;;;;;;7.03;5.75;;;;;;;31.39;100.00;98546.47;5173451;27;20564;-54
2022/08/05 05:50:16;;;;;;;13.63;5.95;;;;;;;32.12;100.00;98570.72;5173184;27;20647;-50
2022/08/05 05:52:43;;;;;;;7.75;6.18;;;;;;;32.28;100.00;98583.22;5173186;27;20042;-51
2022/08/05 05:55:11;;;;;;;13.30;6.22;;;;;;;32.40;100.00;98627.22;5173021;27;20046;-51
2022/08/05 05:57:39;;;;;;;5.97;5.05;;;;;;;31.25;100.00;98598.47;5172773;27;20054;-53
2022/08/05 06:00:11;;;;;;;9.85;6.10;;;;;;;32.74;100.00;98638.31;5173218;27;20050;-50
2022/08/05 06:02:37;;;;;;;14.35;6.22;;;;;;;32.08;100.00;98624.09;5172787;27;20145;-53
2022/08/05 06:05:04;;;;;;;8.13;5.32;;;;;;;32.04;100.00;98623.63;5173086;27;20046;-53
2022/08/05 06:07:30;;;;;;;8.77;5.63;;;;;;;32.07;100.00;98645.25;5172723;27;20141;-54
2022/08/05 06:09:56;;;;;;;9.65;5.63;;;;;;;32.36;100.00;98635.25;5172906;27;20076;-52
2022/08/05 06:12:22;;;;;;;20.33;5.70;;;;;;;32.53;100.00;98652.94;5172527;27;20094;-53
2022/08/05 06:14:49;;;;;;;8.48;5.20;;;;;;;31.60;100.00;98639.56;5172654;27;20054;-53
2022/08/05 06:17:16;;;;;;;10.93;5.75;;;;;;;32.26;100.00;98685.88;5172561;27;20042;-53
2022/08/05 06:19:42;;;;;;;7.10;5.20;;;;;;;33.01;100.00;98707.50;5172455;27;20058;-53
2022/08/05 06:22:08;;;;;;;15.02;5.28;;;;;;;33.15;100.00;98663.72;5172431;27;20046;-53
2022/08/05 06:24:35;;;;;;;8.18;5.10;;;;;;;33.13;100.00;98731.66;5172428;27;20050;-53
2022/08/05 06:27:02;;;;;;;8.13;5.53;;;;;;;33.29;100.00;98710.06;5172673;27;20050;-50
2022/08/05 06:29:28;;;;;;;7.93;5.43;;;;;;;33.52;100.00;98735.41;5172302;27;20058;-53
2022/08/05 06:31:55;;;;;;;8.80;5.00;;;;;;;33.24;100.00;98747.81;5172628;27;20132;-49
2022/08/05 06:34:21;;;;;;;11.65;5.20;;;;;;;33.42;100.00;98738.59;5172363;27;20520;-52
2022/08/05 06:36:48;;;;;;;11.93;5.53;;;;;;;34.01;100.00;98747.50;5172608;27;20046;-53
2022/08/05 06:39:14;;;;;;;10.60;5.20;;;;;;;33.16;100.00;98744.03;5172334;27;20104;-52
2022/08/05 06:41:40;;;;;;;5.88;5.28;;;;;;;34.38;100.00;98766.63;5172736;27;20049;-53
2022/08/05 06:44:07;;;;;;;11.18;4.82;;;;;;;34.35;100.00;98790.47;5172199;27;20058;-52
2022/08/05 06:46:33;;;;;;;7.60;4.90;;;;;;;34.49;100.00;98831.19;5172130;27;20050;-54
2022/08/05 06:49:00;;;;;;;8.35;5.32;;;;;;;34.48;100.00;98823.16;5171974;27;20046;-54
2022/08/05 06:51:27;;;;;;;9.25;5.05;;;;;;;34.03;100.00;98806.69;5171168;27;20187;-55
2022/08/05 06:53:53;;;;;;;6.53;5.00;;;;;;;33.27;100.00;98783.66;5171879;27;20042;-52
2022/08/05 06:56:19;;;;;;;6.90;5.30;;;;;;;33.07;100.00;98735.84;5172189;27;20050;-53
2022/08/05 06:58:45;;;;;;;9.40;5.00;;;;;;;33.00;100.00;98728.69;5172031;27;20054;-53
2022/08/05 07:01:12;;;;;;;10.02;4.97;;;;;;;33.40;100.00;98797.25;5171921;27;20050;-54
2022/08/05 07:03:38;;;;;;;10.35;5.57;;;;;;;33.67;100.00;98796.19;5172199;27;20047;-53
2022/08/05 07:06:05;;;;;;;10.93;6.25;;;;;;;34.15;100.00;98765.41;5172077;27;20073;-54
2022/08/05 07:08:31;;;;;;;8.18;6.07;;;;;;;34.13;100.00;98773.72;5172040;27;20050;-53
2022/08/05 07:10:58;;;;;;;12.45;5.95;;;;;;;34.31;100.00;98775.03;5171807;27;20053;-54
2022/08/05 07:18:53;;;;;;;7.90;5.22;;;;;;;34.03;100.00;98784.72;5171874;27;20049;-50
2022/08/05 07:21:20;;;;;;;13.27;5.57;;;;;;;33.86;100.00;98799.09;5171502;27;20050;-53
2022/08/05 07:23:46;;;;;;;13.20;6.43;;;;;;;34.17;100.00;98786.31;5171861;27;20137;-54
2022/08/05 07:26:12;;;;;;;14.98;6.45;;;;;;;34.33;100.00;98793.09;5172075;27;20042;-54
2022/08/05 07:28:38;;;;;;;9.35;7.50;;;;;;;33.61;100.00;98798.31;5171584;27;20046;-52
2022/08/05 07:31:07;;;;;;;7.38;6.43;;;;;;;34.63;100.00;98778.72;5171872;27;20067;-54
2022/08/05 07:33:33;;;;;;;12.45;6.32;;;;;;;34.99;100.00;98845.97;5171431;27;20505;-54
2022/08/05 07:35:59;;;;;;;9.88;6.35;;;;;;;34.73;100.00;98818.94;5171429;27;20078;-52
2022/08/05 07:38:27;;;;;;;8.88;5.53;;;;;;;34.66;100.00;98823.19;5170766;27;20410;-53
2022/08/05 07:40:53;;;;;;;12.00;5.93;;;;;;;34.60;100.00;98831.03;5170796;27;20061;-55
2022/08/05 07:43:19;;;;;;;9.30;5.38;;;;;;;35.46;100.00;98812.09;5170775;27;20050;-54
2022/08/05 07:45:46;;;;;;;10.23;5.25;;;;;;;34.70;100.00;98813.56;5171055;27;20194;-55
2022/08/05 07:48:12;;;;;;;9.40;5.60;;;;;;;35.43;100.00;98818.88;5171135;27;20146;-53
2022/08/05 07:50:38;;;;;;;6.72;5.50;;;;;;;35.79;100.00;98807.09;5171617;27;20102;-54
2022/08/05 07:53:05;;;;;;;9.73;5.80;;;;;;;35.17;100.00;98830.97;5171794;27;20046;-54
2022/08/05 07:55:31;;;;;;;11.40;5.60;;;;;;;35.48;100.00;98822.91;5171365;27;20050;-54
2022/08/05 07:57:58;;;;;;;7.68;5.45;;;;;;;33.44;100.00;98706.78;5171539;27;20043;-54
2022/08/05 08:00:24;;;;;;;10.27;5.80;;;;;;;34.06;100.00;98806.38;5171102;27;20046;-52
2022/08/05 08:02:50;;;;;;;10.43;6.15;;;;;;;32.64;100.00;98751.38;5171970;27;20050;-52
2022/08/05 08:05:17;;;;;;;10.13;6.60;;;;;;;32.97;100.00;98780.84;5174662;27;20054;-54
2022/08/05 08:07:43;;;;;;;7.57;6.03;;;;;;;32.13;100.00;98711.22;5174617;27;20156;-52
2022/08/05 08:10:09;;;;;;;8.13;5.97;;;;;;;32.86;100.00;98704.25;5174710;27;20417;-53
2022/08/05 08:12:36;;;;;;;6.72;5.93;;;;;;;32.56;100.00;98725.66;5174521;27;20413;-54
2022/08/05 08:15:03;;;;;;;9.00;6.32;;;;;;;33.82;100.00;98746.66;5174366;27;20090;-54
2022/08/05 08:17:30;;;;;;;6.97;5.78;;;;;;;33.57;100.00;98745.94;5174266;27;20042;-53
2022/08/05 08:19:56;;;;;;;5.93;5.43;;;;;;;33.63;100.00;98746.66;5174613;27;20493;-53
2022/08/05 08:22:26;;;;;;;7.05;6.07;;;;;;;33.70;100.00;98758.19;5174464;27;20047;-54
2022/08/05 08:24:52;;;;;;;9.20;5.38;;;;;;;34.00;100.00;98745.94;5174607;27;20085;-53
2022/08/05 08:27:18;;;;;;;12.18;6.18;;;;;;;33.26;100.00;98714.72;5174288;27;20465;-54
2022/08/05 08:29:45;;;;;;;9.45;6.60;;;;;;;33.48;100.00;98747.81;5174537;27;20053;-54
2022/08/05 08:32:11;;;;;;;8.25;5.53;;;;;;;33.13;100.00;98731.66;5174202;27;20523;-54
2022/08/05 08:34:37;;;;;;;7.82;6.15;;;;;;;33.52;100.00;98756.06;5174230;27;20050;-54
2022/08/05 08:37:04;;;;;;;6.70;6.10;;;;;;;33.20;100.00;98702.66;5174282;27;20057;-54
2022/08/05 08:39:30;;;;;;;7.10;5.93;;;;;;;33.46;100.00;98724.09;5174120;27;20042;-54
2022/08/05 08:41:59;;;;;;;12.07;6.18;;;;;;;33.61;100.00;98797.56;5174291;27;20053;-53
2022/08/05 08:44:29;;;;;;;6.53;5.50;;;;;;;33.02;100.00;98731.72;5174318;27;20083;-54
2022/08/05 08:46:56;;;;;;;7.00;6.05;;;;;;;33.79;100.00;98776.16;5174480;27;20042;-54
2022/08/05 08:49:24;;;;;;;9.13;5.70;;;;;;;32.37;100.00;98698.44;5174074;27;20050;-53
2022/08/05 08:52:07;;;;;;;8.68;6.25;;;;;;;33.26;100.00;98751.66;5174390;27;20046;-53
2022/08/05 08:54:35;;;;;;;6.53;5.90;;;;;;;32.53;100.00;98718.19;5173912;27;20470;-54
2022/08/05 08:57:01;;;;;;;8.30;5.55;;;;;;;33.41;100.00;98725.66;5174037;27;20066;-54
2022/08/05 08:59:28;;;;;;;7.43;6.05;;;;;;;33.87;100.00;98757.22;5174004;27;20050;-55
2022/08/05 09:01:54;;;;;;;10.65;6.20;;;;;;;33.84;100.00;98747.69;5173810;27;20525;-52
2022/08/05 09:04:21;;;;;;;7.35;6.35;;;;;;;33.54;100.00;98719.34;5173444;27;20050;-54
2022/08/05 09:06:48;;;;;;;10.30;6.28;;;;;;;33.13;100.00;98733.72;5173559;27;20402;-52
2022/08/05 09:09:15;;;;;;;8.38;5.78;;;;;;;33.14;100.00;98701.16;5173811;27;20126;-54
2022/08/05 09:11:41;;;;;;;9.45;6.05;;;;;;;34.14;100.00;98767.47;5173652;27;20057;-53
2022/08/05 09:14:08;;;;;;;12.43;5.93;;;;;;;34.63;100.00;98809.28;5173550;27;20052;-53
2022/08/05 09:16:34;;;;;;;9.07;6.30;;;;;;;34.06;100.00;98789.31;5173267;27;20046;-52
2022/08/05 09:19:00;;;;;;;9.10;6.13;;;;;;;33.21;100.00;98720.47;5173853;27;20050;-53
2022/08/05 09:21:28;;;;;;;10.48;6.60;;;;;;;33.20;100.00;98742.41;5173507;27;20057;-55
2022/08/05 09:24:04;;;;;;;6.45;5.95;;;;;;;33.76;100.00;98766.66;5174017;27;20413;-54
2022/08/05 09:26:31;;;;;;;16.45;6.75;;;;;;;33.45;100.00;98737.50;5173517;27;20049;-53
2022/08/05 09:29:00;;;;;;;8.23;5.78;;;;;;;32.92;100.00;98750.38;5173453;27;20054;-53
2022/08/05 09:31:27;;;;;;;15.25;6.15;;;;;;;33.50;100.00;98727.41;5173562;27;20084;-53
2022/08/05 09:33:55;;;;;;;11.82;6.30;;;;;;;33.45;100.00;98739.56;5173814;27;20042;-53
2022/08/05 09:36:21;;;;;;;9.57;6.07;;;;;;;33.33;100.00;98749.53;5173509;27;20053;-53
2022/08/05 09:38:59;;;;;;;7.03;6.32;;;;;;;33.33;100.00;98750.31;5173470;27;20054;-53
2022/08/05 09:41:26;;;;;;;6.55;5.82;;;;;;;33.21;100.00;98738.25;5173183;27;20042;-53
2022/08/05 09:43:52;;;;;;;7.55;6.15;;;;;;;32.84;100.00;98684.91;5172966;27;20054;-52
2022/08/05 09:46:27;;;;;;;9.68;5.95;;;;;;;32.37;100.00;98710.53;5173484;27;20052;-51
2022/08/05 09:48:54;;;;;;;8.82;6.38;;;;;;;31.96;100.00;98711.31;5173160;27;20485;-50
2022/08/05 09:51:31;;;;;;;12.05;6.38;;;;;;;31.38;100.00;98675.19;5172952;27;20054;-52
2022/08/05 09:53:58;;;;;;;11.98;6.32;;;;;;;31.44;100.00;98688.56;5173023;27;20504;-50
2022/08/05 09:56:25;;;;;;;10.18;6.30;;;;;;;31.49;100.00;98673.59;5172944;27;20141;-53
2022/08/05 09:58:59;;;;;;;8.40;6.18;;;;;;;32.43;100.00;98696.34;5172808;27;20489;-50
2022/08/05 10:01:25;;;;;;;9.27;5.90;;;;;;;33.02;100.00;98701.28;5172849;27;20053;-50
2022/08/05 10:03:56;;;;;;;9.93;6.78;;;;;;;33.22;100.00;98731.31;5172871;27;20046;-50
2022/08/05 10:06:22;;;;;;;9.23;6.07;;;;;;;32.96;100.00;98722.53;5172835;27;20046;-50
2022/08/05 10:08:49;;;;;;;9.73;5.82;;;;;;;32.13;100.00;98682.84;5172698;27;20057;-54
2022/08/05 10:11:16;;;;;;;6.18;5.57;;;;;;;32.40;100.00;98658.44;5172496;27;20052;-53
2022/08/05 10:13:43;;;;;;;7.20;6.50;;;;;;;32.88;100.00;98684.63;5172793;27;20053;-53
2022/08/05 10:16:29;;;;;;;7.05;6.18;;;;;;;33.40;100.00;98732.66;5172504;27;20098;-54
2022/08/05 10:18:55;;;;;;;9.55;7.10;;;;;;;32.28;100.00;98659.81;5172671;27;20057;-52
2022/08/05 10:21:22;;;;;;;8.60;6.13;;;;;;;32.96;100.00;98631.66;5172794;27;20141;-54
2022/08/05 10:23:49;;;;;;;12.18;7.07;;;;;;;32.23;100.00;98652.13;5172457;27;20497;-54
2022/08/05 10:26:16;;;;;;;6.70;6.05;;;;;;;33.57;100.00;98735.34;5171539;27;20047;-54
2022/08/05 10:28:43;;;;;;;9.23;6.70;;;;;;;33.07;100.00;98713.13;5172123;27;20054;-54
2022/08/05 10:31:11;;;;;;;9.10;6.53;;;;;;;32.75;100.00;98677.50;5172558;27;20060;-51
2022/08/05 10:33:38;;;;;;;9.40;6.03;;;;;;;32.84;100.00;98712.53;5172512;27;20497;-53
2022/08/05 10:36:05;;;;;;;8.90;5.45;;;;;;;32.22;100.00;98719.38;5172395;27;20050;-54
2022/08/05 10:38:34;;;;;;;6.85;5.88;;;;;;;32.98;100.00;98725.59;5172458;27;20552;-51
2022/08/05 10:41:09;;;;;;;6.07;5.40;;;;;;;32.51;100.00;98731.34;5172373;27;20088;-54
2022/08/05 10:43:46;;;;;;;6.97;5.38;;;;;;;32.07;100.00;98687.78;5172626;27;20046;-55
2022/08/05 10:46:15;;;;;;;7.78;5.78;;;;;;;31.97;100.00;98678.81;5172165;27;20061;-54
2022/08/05 10:48:42;;;;;;;8.88;5.28;;;;;;;32.32;100.00;98680.94;5172297;27;20553;-54
2022/08/05 10:51:11;;;;;;;7.57;5.70;;;;;;;32.61;100.00;98703.44;5172094;27;20057;-52
2022/08/05 10:53:42;;;;;;;8.48;5.40;;;;;;;32.24;100.00;98676.34;5172431;27;20513;-54
2022/08/05 10:56:11;;;;;;;6.03;5.22;;;;;;;32.72;100.00;98758.03;5172383;27;20054;-53
2022/08/05 10:58:49;;;;;;;7.20;5.40;;;;;;;32.18;100.00;98772.00;5172136;27;20057;-53
2022/08/05 11:01:16;;;;;;;6.75;5.25;;;;;;;32.37;100.00;98733.22;5172121;27;20085;-51
2022/08/05 11:04:06;;;;;;;6.22;5.13;;;;;;;32.52;100.00;98732.88;5172155;27;20106;-50
2022/08/05 11:06:34;;;;;;;8.10;5.32;;;;;;;32.78;100.00;98736.03;5172077;27;20046;-53
2022/08/05 11:09:17;;;;;;;6.50;5.32;;;;;;;32.80;100.00;98719.25;5172019;27;20050;-54
2022/08/05 11:11:45;;;;;;;;;;;;;;;32.74;100.00;98695.81;5172866;27;20489;-53
2022/08/05 11:14:13;;;;;;;8.10;5.43;;;;;;;32.17;100.00;98654.22;5171946;27;19959;-50
2022/08/05 11:16:39;;;;;;;6.10;5.40;;;;;;;31.34;100.00;98666.19;5171668;27;20049;-51
2022/08/05 11:19:25;;;;;;;6.35;5.75;;;;;;;31.31;100.00;98672.09;5171868;27;20404;-52
2022/08/05 11:21:52;;;;;;;5.50;5.00;;;;;;;31.16;100.00;98630.69;5171585;27;20133;-53
2022/08/05 11:24:20;;;;;;;6.50;5.15;;;;;;;30.71;100.00;98633.59;5171478;27;20046;-50
2022/08/05 11:26:47;;;;;;;6.45;5.70;;;;;;;31.55;100.00;98654.53;5171633;27;20053;-52
2022/08/05 11:29:36;;;;;;;9.68;5.95;;;;;;;31.06;100.00;98611.69;5171741;27;20046;-53
2022/08/05 11:32:25;;;;;;;7.63;5.40;;;;;;;31.32;100.00;98600.81;5171753;27;20053;-54